»·PEaware :: VRD554 KSBA-KPSP

VRD554 :: KSBA-KPSP

FLIGHT INFORMATION

Flight Status: Arrived
Operator:
Virgin America
More flights by this operator :: More flights under this callsign
Pilot: Shawn G. (7208)
Aircraft: AIRBUS A320
(A320)
More flights by this aircraft type
Origin: KSBA Santa Barbara Mun
United States
Destination: KPSP Palm Springs Intl
United States
More flights between these airports :: More routes between these airports
Route: +KWANG5 HENER PMD V137 PSP
File this flight plan on PilotEdge
Remarks:
Altitude:
(Current/Filed)
21,000ft
Speed:
(Current/Filed)
444kts
Departed: 08-Dec-17 07:41 PM
Arrived: 08-Dec-17 08:23 PM
Distance/Time
Traveled:
169nm/0:42
Distance/Time
To Go:
Arrived

Flight Plot

Page will automatically refresh every two minutes.


Map Options




Map Legend


Flown Route
Filed Route
Departure Airport
Arrival Airport
Navaid (VOR, NDB)
Fix

Horizontal Profiles

Position Reports

Time Latitude Longitude Heading Altitude Ground
Speed
08-Dec-17 19:20 34.425129 -119.837276 113 22ft 0kts
08-Dec-17 19:21 34.425129 -119.837276 113 22ft 0kts
08-Dec-17 19:22 34.425129 -119.837276 113 22ft 0kts
08-Dec-17 19:23 34.425129 -119.837276 113 22ft 0kts
08-Dec-17 19:24 34.425129 -119.837276 113 22ft 0kts
08-Dec-17 19:25 34.425129 -119.837276 113 22ft 0kts
08-Dec-17 19:26 34.425129 -119.837276 113 22ft 0kts
08-Dec-17 19:27 34.425129 -119.837276 113 22ft 0kts
08-Dec-17 19:28 34.425129 -119.837276 113 22ft 0kts
08-Dec-17 19:29 34.425129 -119.837276 113 22ft 0kts
08-Dec-17 19:30 34.425129 -119.837276 113 22ft 0kts
08-Dec-17 19:31 34.425129 -119.837276 113 22ft 0kts
08-Dec-17 19:32 34.425129 -119.837276 113 22ft 0kts
08-Dec-17 19:33 34.425129 -119.837276 113 22ft 0kts
08-Dec-17 19:34 34.425129 -119.837276 113 22ft 0kts
08-Dec-17 19:35 34.425011 -119.837550 39 22ft 1kts
08-Dec-17 19:36 34.424933 -119.837618 25 22ft 0kts
08-Dec-17 19:37 34.424831 -119.837662 9 22ft 0kts
08-Dec-17 19:38 34.424831 -119.837662 9 22ft 0kts
08-Dec-17 19:39 34.424832 -119.837662 9 22ft 0kts
08-Dec-17 19:40 34.426209 -119.838204 348 22ft 4kts
08-Dec-17 19:41 34.426778 -119.835172 88 22ft 11kts
08-Dec-17 19:42 34.426976 -119.834610 3 22ft 0kts
08-Dec-17 19:43 34.426976 -119.834610 3 22ft 0kts
08-Dec-17 19:44 34.426987 -119.834610 2 22ft 0kts
08-Dec-17 19:45 34.427879 -119.835399 269 22ft 11kts
08-Dec-17 19:46 34.416096 -119.871998 197 1782ft 182kts
08-Dec-17 19:47 34.390479 -119.826893 82 4703ft 237kts
08-Dec-17 19:48 34.388452 -119.740580 110 7668ft 272kts
08-Dec-17 19:49 34.358547 -119.655424 110 8026ft 276kts
08-Dec-17 19:50 34.328513 -119.569583 110 8026ft 278kts
08-Dec-17 19:51 34.311657 -119.480629 82 8641ft 276kts
08-Dec-17 19:52 34.318962 -119.386400 83 11673ft 301kts
08-Dec-17 19:53 34.327027 -119.280007 83 13001ft 363kts
08-Dec-17 19:54 34.349767 -119.156411 71 14877ft 387kts
08-Dec-17 19:55 34.382907 -119.030258 70 16834ft 401kts
08-Dec-17 19:56 34.415665 -118.904848 70 18528ft 413kts
08-Dec-17 19:57 34.450661 -118.770211 69 20138ft 425kts
08-Dec-17 19:58 34.486387 -118.632053 69 21347ft 435kts
08-Dec-17 19:59 34.523152 -118.489079 69 21382ft 451kts
08-Dec-17 20:00 34.559762 -118.346055 70 21436ft 449kts
08-Dec-17 20:01 34.596190 -118.202897 70 21444ft 449kts
08-Dec-17 20:02 34.613939 -118.053072 96 21444ft 461kts
08-Dec-17 20:03 34.561449 -117.910656 116 21443ft 468kts
08-Dec-17 20:04 34.498101 -117.772258 116 21408ft 469kts
08-Dec-17 20:05 34.434583 -117.634147 116 21375ft 470kts
08-Dec-17 20:06 34.370906 -117.496258 116 21225ft 469kts
08-Dec-17 20:07 34.307320 -117.359103 116 21048ft 467kts
08-Dec-17 20:08 34.244142 -117.223342 116 21050ft 468kts
08-Dec-17 20:10 34.180253 -117.086560 116 21017ft 464kts
08-Dec-17 20:11 34.121873 -116.961942 116 19355ft 431kts
08-Dec-17 20:12 34.065630 -116.842398 116 16117ft 388kts
08-Dec-17 20:13 34.014594 -116.734293 116 14962ft 331kts
08-Dec-17 20:14 33.971383 -116.642918 116 13926ft 308kts
08-Dec-17 20:15 33.929632 -116.555020 116 11925ft 298kts
08-Dec-17 20:16 33.890167 -116.472072 116 11032ft 296kts
08-Dec-17 20:17 33.851447 -116.385996 114 9592ft 292kts
08-Dec-17 20:18 33.815056 -116.300104 116 6873ft 288kts
08-Dec-17 20:19 33.777683 -116.223323 138 5741ft 238kts
08-Dec-17 20:20 33.721921 -116.197677 182 4703ft 207kts
08-Dec-17 20:21 33.669907 -116.223729 223 4005ft 209kts
08-Dec-17 20:22 33.645900 -116.285953 265 4005ft 211kts
08-Dec-17 20:23 33.663355 -116.350774 308 4009ft 207kts
08-Dec-17 20:24 33.705749 -116.393021 320 3687ft 182kts
08-Dec-17 20:25 33.744527 -116.428967 320 2388ft 163kts
08-Dec-17 20:26 33.776795 -116.458881 320 1587ft 139kts
08-Dec-17 20:27 33.806886 -116.487427 321 852ft 137kts
08-Dec-17 20:28 33.834490 -116.512089 328 486ft 64kts
08-Dec-17 20:29 33.835170 -116.514621 136 486ft 18kts
08-Dec-17 20:30 33.830622 -116.510658 144 486ft 22kts
08-Dec-17 20:31 33.825521 -116.507175 206 486ft 12kts
08-Dec-17 20:32 33.824567 -116.507146 172 486ft 4kts
08-Dec-17 20:33 33.823744 -116.506954 168 486ft 0kts
08-Dec-17 20:34 33.823745 -116.506954 168 486ft 0kts
08-Dec-17 20:35 33.823745 -116.506954 168 486ft 0kts
08-Dec-17 20:36 33.823744 -116.506954 168 486ft 0kts
08-Dec-17 20:37 33.823744 -116.506954 168 486ft 0kts
08-Dec-17 20:38 33.823744 -116.506954 168 486ft 0kts

Navigation Log

Ident Type
1. KSBA Airport
2. KWANG Fix
3. HENER Fix
4. PMD Navaid
5. PURPS Fix
6. HESPE Fix
7. HITOP Fix
8. ARRAN Fix
9. MORON Fix
10. WHETO Fix
11. PSP Navaid
12. KPSP Airport